createdAt,value
2018-05-17T00:02:25.266Z,99.90
2018-05-17T00:04:52.740Z,99.90
2018-05-17T00:07:20.241Z,99.90
2018-05-17T00:09:47.716Z,99.90
2018-05-17T00:12:15.973Z,99.90
2018-05-17T00:14:43.444Z,99.90
2018-05-17T00:17:11.705Z,99.90
2018-05-17T00:19:39.182Z,99.90
2018-05-17T00:22:07.425Z,99.90
2018-05-17T00:24:34.917Z,99.90
2018-05-17T00:27:02.396Z,99.90
2018-05-17T00:29:29.886Z,99.90
2018-05-17T00:31:57.367Z,99.90
2018-05-17T00:34:25.681Z,99.90
2018-05-17T00:36:53.137Z,99.90
2018-05-17T00:39:20.629Z,99.90
2018-05-17T00:41:48.105Z,99.90
2018-05-17T00:44:15.593Z,99.90
2018-05-17T00:46:43.072Z,99.90
2018-05-17T00:49:10.577Z,99.90
2018-05-17T00:51:38.048Z,99.90
2018-05-17T00:54:06.289Z,99.90
2018-05-17T00:56:33.781Z,99.90
2018-05-17T00:59:01.266Z,99.80
2018-05-17T01:01:28.757Z,99.80
2018-05-17T01:03:56.249Z,99.90
2018-05-17T01:06:24.509Z,99.90
2018-05-17T01:08:52.757Z,99.90
2018-05-17T01:11:20.251Z,99.90
2018-05-17T01:13:48.489Z,99.90
2018-05-17T01:16:15.985Z,99.90
2018-05-17T01:18:43.462Z,99.90
2018-05-17T01:21:10.936Z,99.70
2018-05-17T01:23:38.432Z,99.40
2018-05-17T01:26:06.681Z,99.90
2018-05-17T01:28:34.937Z,99.90
2018-05-17T01:31:02.412Z,99.90
2018-05-17T01:33:29.918Z,99.90
2018-05-17T01:35:57.393Z,99.90
2018-05-17T01:38:25.709Z,99.90
2018-05-17T01:40:53.186Z,99.90
2018-05-17T01:43:21.442Z,99.90
2018-05-17T01:45:48.913Z,99.90
2018-05-17T01:48:17.149Z,99.90
2018-05-17T01:50:44.681Z,99.90
2018-05-17T01:53:12.169Z,99.90
2018-05-17T01:55:39.656Z,99.90
2018-05-17T01:58:07.910Z,99.90
2018-05-17T02:00:35.401Z,99.90
2018-05-17T02:03:03.641Z,99.90
2018-05-17T02:05:31.138Z,99.90
2018-05-17T02:07:58.605Z,99.90
2018-05-17T02:10:26.075Z,99.90
2018-05-17T02:12:53.565Z,99.90
2018-05-17T02:15:21.037Z,99.90
2018-05-17T02:17:49.293Z,99.90
2018-05-17T02:20:16.765Z,99.90
2018-05-17T02:22:44.258Z,99.90
2018-05-17T02:25:11.729Z,99.90
2018-05-17T02:27:39.205Z,99.90
2018-05-17T02:30:06.701Z,99.90
2018-05-17T02:32:34.950Z,99.90
2018-05-17T02:35:02.457Z,99.90
2018-05-17T02:37:29.929Z,99.90
2018-05-17T02:39:58.423Z,99.90
2018-05-17T02:42:25.708Z,99.90
2018-05-17T02:44:53.944Z,99.90
2018-05-17T02:47:21.438Z,99.90
2018-05-17T02:49:49.677Z,99.90
2018-05-17T02:52:17.170Z,99.90
2018-05-17T02:54:45.425Z,99.90
2018-05-17T02:57:12.927Z,99.90
2018-05-17T02:59:40.405Z,99.90
2018-05-17T03:02:07.893Z,99.90
2018-05-17T03:04:35.377Z,99.90
2018-05-17T03:07:03.638Z,99.90
2018-05-17T03:09:31.877Z,99.90
2018-05-17T03:11:59.349Z,99.90
2018-05-17T03:14:26.840Z,99.90
2018-05-17T03:16:55.090Z,99.90
2018-05-17T03:19:23.356Z,99.90
2018-05-17T03:21:50.829Z,99.90
2018-05-17T03:24:19.090Z,99.90
2018-05-17T03:26:46.560Z,99.90
2018-05-17T03:29:14.829Z,99.90
2018-05-17T03:31:42.302Z,99.90
2018-05-17T03:34:10.561Z,99.90
2018-05-17T03:36:38.049Z,99.90
2018-05-17T03:39:06.389Z,99.90
2018-05-17T03:41:33.903Z,99.90
2018-05-17T03:44:01.385Z,99.90
2018-05-17T03:46:28.873Z,99.80
2018-05-17T03:48:57.105Z,99.50
2018-05-17T03:51:24.605Z,99.50
2018-05-17T03:53:52.845Z,98.80
2018-05-17T03:56:20.323Z,98.80
2018-05-17T03:58:48.053Z,98.80
2018-05-17T04:01:27.365Z,99.00
2018-05-17T04:04:06.776Z,98.90
2018-05-17T04:06:39.973Z,98.70
2018-05-17T04:09:07.442Z,99.10
2018-05-17T04:11:34.913Z,98.30
2018-05-17T04:14:02.405Z,98.50
2018-05-17T04:16:29.882Z,97.80
2018-05-17T04:18:58.144Z,98.00
2018-05-17T04:21:26.396Z,97.80
2018-05-17T04:23:53.885Z,97.70
2018-05-17T04:26:22.129Z,98.20
2018-05-17T04:28:49.619Z,98.10
2018-05-17T04:31:17.858Z,98.10
2018-05-17T04:33:45.353Z,98.10
2018-05-17T04:36:12.831Z,97.60
2018-05-17T04:38:40.305Z,97.80
2018-05-17T04:41:07.793Z,97.90
2018-05-17T04:43:35.265Z,98.40
2018-05-17T04:46:03.525Z,97.90
2018-05-17T04:48:31.001Z,97.80
2018-05-17T04:50:58.509Z,98.30
2018-05-17T04:53:25.985Z,98.10
2018-05-17T04:55:53.461Z,97.50
2018-05-17T04:58:21.718Z,97.90
2018-05-17T05:00:49.189Z,97.90
2018-05-17T05:03:17.449Z,96.90
2018-05-17T05:05:44.925Z,96.90
2018-05-17T05:08:13.173Z,97.20
2018-05-17T05:10:40.649Z,97.50
2018-05-17T05:13:08.905Z,96.30
2018-05-17T05:15:36.393Z,96.30
2018-05-17T05:18:03.877Z,95.70
2018-05-17T05:20:31.367Z,95.20
2018-05-17T05:22:58.849Z,95.80
2018-05-17T05:25:27.163Z,94.90
2018-05-17T05:27:54.717Z,94.80
2018-05-17T05:30:22.189Z,94.70
2018-05-17T05:32:49.685Z,94.60
2018-05-17T05:35:17.940Z,94.00
2018-05-17T05:37:45.428Z,94.00
2018-05-17T05:40:13.734Z,94.00
2018-05-17T05:42:41.225Z,94.00
2018-05-17T05:45:08.704Z,94.40
2018-05-17T05:47:36.967Z,94.00
2018-05-17T05:50:04.449Z,93.90
2018-05-17T05:52:31.957Z,93.30
2018-05-17T05:54:59.425Z,92.90
2018-05-17T05:57:26.945Z,93.10
2018-05-17T05:59:54.445Z,92.70
2018-05-17T06:02:22.025Z,92.00
2018-05-17T06:04:49.607Z,92.30
2018-05-17T06:07:17.085Z,91.90
2018-05-17T06:09:44.805Z,91.10
2018-05-17T06:12:13.046Z,91.50
2018-05-17T06:14:40.545Z,91.40
2018-05-17T06:17:08.041Z,91.30
2018-05-17T06:19:35.566Z,90.90
2018-05-17T06:22:03.045Z,90.90
2018-05-17T06:24:30.521Z,90.70
2018-05-17T06:26:58.014Z,90.60
2018-05-17T06:29:26.254Z,89.60
2018-05-17T06:31:53.746Z,89.50
2018-05-17T06:34:21.989Z,90.20
2018-05-17T06:36:49.497Z,90.10
2018-05-17T06:39:17.045Z,89.60
2018-05-17T06:41:44.524Z,89.00
2018-05-17T06:44:12.019Z,88.80
2018-05-17T06:46:39.496Z,89.60
2018-05-17T06:49:07.825Z,89.00
2018-05-17T06:51:35.296Z,88.90
2018-05-17T06:54:02.806Z,88.50
2018-05-17T06:56:30.289Z,87.40
2018-05-17T06:58:57.838Z,87.70
2018-05-17T07:01:25.329Z,86.20
2018-05-17T07:03:52.806Z,85.90
2018-05-17T07:06:21.080Z,85.50
2018-05-17T07:08:49.331Z,85.00
2018-05-17T07:11:16.841Z,85.00
2018-05-17T07:13:44.317Z,86.20
2018-05-17T07:16:11.781Z,84.60
2018-05-17T07:18:39.638Z,82.60
2018-05-17T07:21:07.550Z,82.40
2018-05-17T07:23:35.825Z,82.50
2018-05-17T07:26:03.301Z,82.00
2018-05-17T07:28:31.557Z,80.10
2018-05-17T07:30:59.034Z,80.10
2018-05-17T07:33:26.530Z,80.50
2018-05-17T07:35:54.002Z,77.80
2018-05-17T07:38:21.477Z,77.70
2018-05-17T07:40:48.970Z,77.50
2018-05-17T07:43:16.446Z,76.80
2018-05-17T07:45:43.929Z,77.70
2018-05-17T07:48:11.406Z,76.00
2018-05-17T07:50:38.893Z,75.30
2018-05-17T07:53:06.365Z,75.80
2018-05-17T07:55:33.910Z,75.20
2018-05-17T07:58:02.194Z,72.10
2018-05-17T08:00:29.674Z,72.10
2018-05-17T08:02:57.169Z,73.10
2018-05-17T08:05:25.409Z,69.30
2018-05-17T08:07:52.897Z,69.30
2018-05-17T08:10:21.152Z,68.50
2018-05-17T08:12:48.638Z,68.40
2018-05-17T08:15:16.119Z,65.50
2018-05-17T08:17:43.620Z,63.90
2018-05-17T08:20:11.094Z,64.30
2018-05-17T08:22:39.334Z,65.70
2018-05-17T08:25:06.825Z,65.70
2018-05-17T08:27:35.065Z,65.30
2018-05-17T08:30:02.553Z,65.10
2018-05-17T08:32:30.798Z,54.20
2018-05-17T08:34:58.297Z,53.90
2018-05-17T08:37:26.533Z,48.40
2018-05-17T08:39:54.006Z,48.10
2018-05-17T08:42:21.489Z,50.70
2018-05-17T08:44:48.969Z,51.10
2018-05-17T08:47:17.593Z,45.00
2018-05-17T08:49:45.062Z,45.50
2018-05-17T08:52:13.312Z,36.90
2018-05-17T08:54:40.788Z,36.80
2018-05-17T08:57:09.035Z,38.90
2018-05-17T08:59:36.614Z,38.90
2018-05-17T09:02:04.773Z,47.10
2018-05-17T09:04:32.259Z,46.90
2018-05-17T09:07:00.489Z,49.50
2018-05-17T09:09:28.019Z,49.40
2018-05-17T09:11:56.049Z,45.10
2018-05-17T09:14:24.285Z,50.00
2018-05-17T09:16:51.815Z,49.90
2018-05-17T09:19:20.029Z,46.50
2018-05-17T09:21:47.522Z,46.50
2018-05-17T09:24:15.753Z,44.30
2018-05-17T09:26:43.237Z,44.10
2018-05-17T09:29:11.571Z,44.10
2018-05-17T09:31:38.990Z,44.20
2018-05-17T09:34:06.469Z,44.30
2018-05-17T09:36:33.941Z,44.60
2018-05-17T09:39:01.429Z,47.70
2018-05-17T09:41:28.995Z,44.10
2018-05-17T09:43:56.406Z,40.50
2018-05-17T09:46:23.946Z,41.10
2018-05-17T09:48:51.437Z,37.80
2018-05-17T09:51:18.917Z,38.90
2018-05-17T09:53:46.418Z,37.30
2018-05-17T09:56:13.897Z,41.80
2018-05-17T09:58:41.377Z,46.60
2018-05-17T10:01:09.652Z,42.70
2018-05-17T10:03:37.157Z,42.70
2018-05-17T10:06:04.641Z,41.70
2018-05-17T10:08:32.106Z,39.70
2018-05-17T10:10:59.593Z,37.60
2018-05-17T10:13:27.829Z,33.50
2018-05-17T10:15:55.309Z,33.50
2018-05-17T10:18:22.783Z,31.80
2018-05-17T10:20:51.016Z,34.90
2018-05-17T10:23:18.504Z,34.80
2018-05-17T10:25:46.742Z,35.80
2018-05-17T10:28:14.225Z,35.70
2018-05-17T10:30:41.699Z,34.90
2018-05-17T10:33:09.945Z,34.90
2018-05-17T10:35:37.415Z,34.80
2018-05-17T10:38:05.681Z,30.80
2018-05-17T10:40:36.972Z,30.80
2018-05-17T10:43:04.441Z,32.20
2018-05-17T10:45:31.942Z,32.70
2018-05-17T10:47:59.431Z,32.70
2018-05-17T10:50:26.921Z,34.50
2018-05-17T10:52:54.395Z,32.80
2018-05-17T10:55:21.889Z,34.40
2018-05-17T10:57:50.129Z,36.70
2018-05-17T11:00:17.620Z,36.50
2018-05-17T11:02:45.090Z,37.30
2018-05-17T11:05:12.561Z,35.50
2018-05-17T11:07:40.049Z,34.70
2018-05-17T11:10:07.518Z,34.80
2018-05-17T11:12:35.006Z,36.70
2018-05-17T11:15:02.474Z,37.40
2018-05-17T11:17:29.962Z,36.50
2018-05-17T11:19:57.430Z,30.60
2018-05-17T11:22:24.920Z,33.40
2018-05-17T11:24:52.426Z,35.80
2018-05-17T11:27:19.898Z,33.20
2018-05-17T11:29:47.389Z,37.10
2018-05-17T11:32:15.625Z,34.10
2018-05-17T11:34:43.110Z,34.00
2018-05-17T11:37:11.351Z,31.30
2018-05-17T11:39:38.833Z,31.30
2018-05-17T11:42:07.069Z,29.80
2018-05-17T11:44:34.589Z,29.80
2018-05-17T11:47:02.061Z,31.20
2018-05-17T11:49:29.529Z,29.00
2018-05-17T11:51:57.022Z,28.60
2018-05-17T11:54:24.487Z,28.90
2018-05-17T11:56:52.737Z,31.10
2018-05-17T11:59:20.213Z,31.00
2018-05-17T12:01:47.709Z,34.10
2018-05-17T12:04:15.185Z,36.50
2018-05-17T12:06:42.686Z,36.90
2018-05-17T12:09:10.925Z,35.10
2018-05-17T12:11:38.392Z,35.10
2018-05-17T12:14:05.877Z,34.20
2018-05-17T12:16:34.117Z,32.10
2018-05-17T12:19:01.602Z,32.10
2018-05-17T12:21:29.832Z,31.70
2018-05-17T12:23:57.320Z,31.60
2018-05-17T12:26:24.791Z,29.30
2018-05-17T12:28:53.055Z,33.20
2018-05-17T12:31:20.524Z,33.10
2018-05-17T12:33:48.753Z,32.00
2018-05-17T12:36:16.244Z,31.90
2018-05-17T12:38:44.494Z,35.80
2018-05-17T12:41:12.021Z,35.80
2018-05-17T12:43:39.478Z,36.50
2018-05-17T12:46:06.961Z,32.70
2018-05-17T12:48:34.430Z,34.20
2018-05-17T12:51:01.915Z,34.10
2018-05-17T12:53:29.393Z,36.70
2018-05-17T12:55:56.869Z,36.00
2018-05-17T12:58:24.363Z,34.10
2018-05-17T13:00:52.606Z,35.10
2018-05-17T13:03:20.144Z,35.00
2018-05-17T13:05:47.613Z,35.70
2018-05-17T13:08:15.104Z,36.30
2018-05-17T13:10:43.361Z,38.90
2018-05-17T13:13:10.842Z,38.60
2018-05-17T13:15:39.081Z,35.70
2018-05-17T13:18:06.572Z,35.80
2018-05-17T13:20:34.808Z,32.60
2018-05-17T13:23:02.297Z,32.50
2018-05-17T13:25:30.534Z,35.70
2018-05-17T13:27:58.006Z,35.90
2018-05-17T13:30:25.485Z,32.30
2018-05-17T13:32:53.722Z,33.40
2018-05-17T13:35:21.209Z,33.40
2018-05-17T13:37:48.685Z,34.30
2018-05-17T13:40:16.936Z,34.50
2018-05-17T13:42:44.405Z,35.10
2018-05-17T13:45:12.653Z,36.00
2018-05-17T13:47:40.171Z,35.90
2018-05-17T13:50:08.395Z,37.40
2018-05-17T13:52:35.862Z,37.60
2018-05-17T13:55:04.116Z,35.40
2018-05-17T13:57:31.590Z,35.40
2018-05-17T13:59:59.826Z,35.30
2018-05-17T14:02:27.329Z,35.30
2018-05-17T14:04:55.605Z,35.10
2018-05-17T14:07:23.857Z,35.20
2018-05-17T14:09:51.322Z,35.20
2018-05-17T14:12:19.577Z,37.80
2018-05-17T14:14:47.050Z,37.80
2018-05-17T14:17:15.317Z,35.90
2018-05-17T14:19:42.789Z,35.50
2018-05-17T14:22:11.030Z,35.40
2018-05-17T14:24:38.526Z,35.30
2018-05-17T14:27:06.765Z,35.30
2018-05-17T14:29:34.250Z,35.20
2018-05-17T14:32:02.487Z,37.70
2018-05-17T14:34:29.978Z,37.60
2018-05-17T14:36:58.211Z,34.20
2018-05-17T14:39:25.701Z,34.20
2018-05-17T14:41:53.940Z,35.00
2018-05-17T14:44:21.451Z,35.00
2018-05-17T14:46:48.937Z,36.40
2018-05-17T14:49:16.406Z,35.10
2018-05-17T14:51:43.889Z,36.00
2018-05-17T14:54:11.358Z,35.80
2018-05-17T14:56:39.609Z,36.60
2018-05-17T14:59:07.077Z,36.40
2018-05-17T15:01:34.567Z,37.50
2018-05-17T15:04:02.038Z,39.50
2018-05-17T15:06:29.520Z,38.00
2018-05-17T15:08:56.994Z,39.00
2018-05-17T15:11:24.542Z,36.50
2018-05-17T15:13:52.069Z,37.00
2018-05-17T15:16:19.458Z,35.30
2018-05-17T15:18:46.926Z,38.10
2018-05-17T15:21:15.765Z,39.60
2018-05-17T15:23:43.249Z,39.70
2018-05-17T15:26:10.721Z,40.70
2018-05-17T15:28:38.202Z,42.40
2018-05-17T15:31:06.438Z,39.80
2018-05-17T15:33:33.926Z,39.80
2018-05-17T15:36:01.409Z,39.80
2018-05-17T15:38:29.197Z,39.40
2018-05-17T15:40:56.669Z,40.20
2018-05-17T15:43:24.157Z,39.70
2018-05-17T15:45:52.399Z,40.00
2018-05-17T15:48:19.903Z,40.00
2018-05-17T15:50:48.190Z,41.20
2018-05-17T15:53:15.663Z,41.20
2018-05-17T15:55:43.162Z,39.10
2018-05-17T15:58:10.634Z,40.00
2018-05-17T16:00:38.884Z,39.70
2018-05-17T16:03:06.350Z,39.60
2018-05-17T16:05:34.604Z,41.00
2018-05-17T16:08:02.081Z,41.00
2018-05-17T16:10:29.562Z,41.60
2018-05-17T16:12:57.039Z,41.00
2018-05-17T16:15:24.680Z,41.50
2018-05-17T16:17:52.009Z,41.60
2018-05-17T16:20:20.249Z,42.50
2018-05-17T16:22:47.733Z,42.60
2018-05-17T16:25:15.969Z,44.40
2018-05-17T16:27:43.458Z,44.40
2018-05-17T16:30:10.924Z,44.30
2018-05-17T16:32:39.186Z,46.10
2018-05-17T16:35:06.658Z,46.10
2018-05-17T16:37:34.905Z,47.60
2018-05-17T16:40:02.373Z,47.50
2018-05-17T16:42:29.867Z,48.60
2018-05-17T16:44:57.338Z,49.00
2018-05-17T16:47:24.826Z,47.70
2018-05-17T16:49:52.341Z,49.20
2018-05-17T16:52:19.821Z,49.50
2018-05-17T16:54:47.313Z,49.00
2018-05-17T16:57:15.561Z,49.20
2018-05-17T16:59:43.041Z,49.10
2018-05-17T17:02:10.524Z,49.90
2018-05-17T17:04:38.018Z,51.10
2018-05-17T17:07:05.497Z,51.40
2018-05-17T17:09:32.986Z,51.60
2018-05-17T17:12:00.457Z,52.80
2018-05-17T17:14:28.025Z,53.10
2018-05-17T17:16:55.493Z,53.90
2018-05-17T17:19:23.000Z,55.00
2018-05-17T17:21:51.249Z,56.30
2018-05-17T17:24:18.738Z,56.30
2018-05-17T17:26:46.234Z,56.20
2018-05-17T17:29:13.704Z,55.40
2018-05-17T17:31:41.193Z,54.80
2018-05-17T17:34:09.512Z,55.20
2018-05-17T17:36:37.090Z,55.20
2018-05-17T17:39:07.370Z,55.50
2018-05-17T17:41:34.865Z,54.50
2018-05-17T17:44:02.343Z,55.40
2018-05-17T17:46:29.867Z,56.20
2018-05-17T17:48:57.342Z,56.40
2018-05-17T17:51:24.866Z,56.70
2018-05-17T17:53:52.344Z,56.90
2018-05-17T17:56:19.835Z,57.20
2018-05-17T17:58:48.229Z,57.60
2018-05-17T18:01:16.489Z,57.50
2018-05-17T18:03:44.808Z,57.10
2018-05-17T18:06:12.274Z,57.00
2018-05-17T18:08:39.769Z,57.70
2018-05-17T18:11:07.246Z,58.20
2018-05-17T18:13:35.506Z,58.30
2018-05-17T18:16:02.973Z,58.30
2018-05-17T18:18:31.234Z,58.10
2018-05-17T18:20:59.572Z,58.10
2018-05-17T18:23:27.061Z,58.70
2018-05-17T18:25:54.530Z,59.00
2018-05-17T18:28:22.840Z,59.50
2018-05-17T18:30:50.317Z,59.40
2018-05-17T18:33:17.801Z,59.40
2018-05-17T18:35:45.274Z,59.80
2018-05-17T18:38:13.543Z,60.40
2018-05-17T18:40:41.019Z,60.40
2018-05-17T18:43:08.600Z,60.60
2018-05-17T18:45:36.077Z,61.40
2018-05-17T18:48:03.545Z,62.40
2018-05-17T18:50:31.043Z,62.80
2018-05-17T18:52:59.285Z,64.70
2018-05-17T18:55:26.776Z,64.60
2018-05-17T18:57:54.249Z,64.80
2018-05-17T19:00:21.788Z,65.40
2018-05-17T19:02:49.241Z,66.30
2018-05-17T19:05:16.744Z,66.70
2018-05-17T19:07:44.217Z,67.00
2018-05-17T19:10:11.698Z,67.70
2018-05-17T19:12:39.937Z,68.70
2018-05-17T19:15:07.421Z,68.60
2018-05-17T19:17:35.672Z,69.50
2018-05-17T19:20:03.173Z,69.50
2018-05-17T19:22:30.646Z,69.70
2018-05-17T19:24:58.115Z,70.30
2018-05-17T19:27:25.602Z,70.60
2018-05-17T19:29:53.071Z,71.10
2018-05-17T19:32:20.561Z,71.30
2018-05-17T19:34:48.037Z,71.70
2018-05-17T19:37:15.550Z,71.70
2018-05-17T19:39:43.000Z,72.10
2018-05-17T19:42:11.253Z,72.50
2018-05-17T19:44:38.725Z,72.30
2018-05-17T19:47:06.981Z,73.70
2018-05-17T19:49:34.453Z,73.70
2018-05-17T19:52:01.953Z,73.90
2018-05-17T19:54:29.425Z,74.10
2018-05-17T19:56:56.924Z,74.40
2018-05-17T19:59:24.425Z,74.70
2018-05-17T20:01:51.878Z,75.00
2018-05-17T20:04:19.365Z,75.20
2018-05-17T20:06:46.833Z,75.80
2018-05-17T20:09:14.321Z,76.20
2018-05-17T20:11:42.573Z,77.00
2018-05-17T20:14:10.060Z,76.90
2018-05-17T20:16:37.530Z,77.00
2018-05-17T20:19:05.014Z,77.20
2018-05-17T20:21:32.485Z,77.60
2018-05-17T20:23:59.973Z,77.90
2018-05-17T20:26:28.214Z,78.70
2018-05-17T20:28:55.697Z,78.70
2018-05-17T20:31:23.938Z,79.90
2018-05-17T20:33:51.438Z,79.30
2018-05-17T20:36:18.940Z,79.60
2018-05-17T20:38:46.425Z,79.70
2018-05-17T20:41:13.917Z,80.20
2018-05-17T20:43:41.485Z,80.10
2018-05-17T20:46:08.969Z,80.80
2018-05-17T20:48:36.440Z,81.20
2018-05-17T20:51:03.929Z,81.20
2018-05-17T20:53:32.165Z,82.00
2018-05-17T20:55:59.654Z,82.00
2018-05-17T20:58:27.891Z,82.20
2018-05-17T21:00:55.385Z,82.20
2018-05-17T21:03:23.625Z,82.80
2018-05-17T21:05:51.121Z,82.70
2018-05-17T21:08:18.589Z,82.80
2018-05-17T21:10:46.337Z,83.00
2018-05-17T21:13:13.814Z,83.50
2018-05-17T21:15:41.293Z,84.10
2018-05-17T21:18:08.786Z,84.50
2018-05-17T21:20:37.023Z,85.00
2018-05-17T21:23:04.521Z,85.00
2018-05-17T21:25:32.766Z,85.10
2018-05-17T21:28:00.256Z,85.10
2018-05-17T21:30:28.564Z,86.10
2018-05-17T21:32:56.517Z,86.10
2018-05-17T21:35:24.001Z,86.10
2018-05-17T21:37:51.497Z,86.70
2018-05-17T21:40:18.969Z,86.80
2018-05-17T21:42:47.241Z,87.00
2018-05-17T21:45:15.481Z,87.00
2018-05-17T21:47:42.987Z,87.00
2018-05-17T21:50:10.466Z,87.30
2018-05-17T21:52:37.941Z,87.30
2018-05-17T21:55:06.213Z,87.40
2018-05-17T21:57:33.692Z,87.40
2018-05-17T22:00:01.184Z,87.60
2018-05-17T22:02:28.661Z,87.80
2018-05-17T22:04:56.153Z,87.70
2018-05-17T22:07:23.629Z,88.60
2018-05-17T22:09:51.915Z,89.40
2018-05-17T22:12:19.399Z,89.40
2018-05-17T22:14:46.917Z,88.80
2018-05-17T22:17:15.164Z,89.50
2018-05-17T22:19:42.663Z,89.40
2018-05-17T22:22:10.901Z,90.00
2018-05-17T22:24:38.392Z,90.00
2018-05-17T22:27:06.641Z,90.20
2018-05-17T22:29:34.143Z,90.20
2018-05-17T22:32:01.629Z,90.30
2018-05-17T22:34:29.102Z,90.50
2018-05-17T22:36:56.587Z,90.50
2018-05-17T22:39:24.825Z,90.80
2018-05-17T22:41:52.313Z,90.80
2018-05-17T22:44:20.553Z,90.70
2018-05-17T22:46:48.049Z,90.70
2018-05-17T22:49:16.289Z,91.10
2018-05-17T22:51:43.868Z,91.10
2018-05-17T22:54:11.269Z,91.20
2018-05-17T22:56:50.606Z,91.40
2018-05-17T22:59:18.086Z,91.10
2018-05-17T23:01:45.581Z,91.40
2018-05-17T23:04:13.830Z,91.50
2018-05-17T23:06:41.297Z,91.50
2018-05-17T23:09:09.553Z,91.70
2018-05-17T23:11:37.025Z,91.70
2018-05-17T23:14:05.290Z,91.90
2018-05-17T23:16:32.761Z,91.80
2018-05-17T23:19:01.010Z,92.20
2018-05-17T23:21:28.485Z,92.10
2018-05-17T23:23:56.733Z,92.90
2018-05-17T23:26:24.209Z,92.60
2018-05-17T23:28:51.695Z,92.80
2018-05-17T23:31:19.170Z,93.00
2018-05-17T23:33:46.661Z,93.20
2018-05-17T23:36:14.139Z,93.40
2018-05-17T23:38:43.379Z,93.40
2018-05-17T23:41:22.782Z,93.40
2018-05-17T23:43:51.015Z,93.80
2018-05-17T23:46:18.494Z,93.80
2018-05-17T23:48:45.989Z,93.60
2018-05-17T23:51:13.474Z,94.10
2018-05-17T23:53:40.941Z,93.80
2018-05-17T23:56:08.426Z,94.40
2018-05-17T23:58:36.664Z,94.40
